createdAt,value
2022-07-26T00:00:15.463Z,1.95
2022-07-26T00:02:48.007Z,2.10
2022-07-26T00:05:17.280Z,2.00
2022-07-26T00:07:44.704Z,2.10
2022-07-26T00:10:12.603Z,2.35
2022-07-26T00:12:40.044Z,2.10
2022-07-26T00:15:10.269Z,2.40
2022-07-26T00:17:37.316Z,1.90
2022-07-26T00:20:05.127Z,2.00
2022-07-26T00:22:32.175Z,1.88
2022-07-26T00:24:59.180Z,2.10
2022-07-26T00:27:26.221Z,2.42
2022-07-26T00:29:53.485Z,2.17
2022-07-26T00:32:20.425Z,2.10
2022-07-26T00:34:47.355Z,2.30
2022-07-26T00:37:19.958Z,2.33
2022-07-26T00:39:47.311Z,2.05
2022-07-26T00:42:14.262Z,2.20
2022-07-26T00:44:43.593Z,2.10
2022-07-26T00:47:13.202Z,2.35
2022-07-26T00:49:40.861Z,2.10
2022-07-26T00:52:09.138Z,2.10
2022-07-26T00:54:38.055Z,1.98
2022-07-26T00:57:05.623Z,2.00
2022-07-26T00:59:32.978Z,2.00
2022-07-26T01:02:00.096Z,2.38
2022-07-26T01:04:27.214Z,2.30
2022-07-26T01:06:54.657Z,2.10
2022-07-26T01:09:21.624Z,2.10
2022-07-26T01:11:48.600Z,1.92
2022-07-26T01:14:15.856Z,2.30
2022-07-26T01:16:42.910Z,2.08
2022-07-26T01:19:09.939Z,2.30
2022-07-26T01:21:36.864Z,1.85
2022-07-26T01:24:04.199Z,2.33
2022-07-26T01:26:31.201Z,2.10
2022-07-26T01:28:58.204Z,2.15
2022-07-26T01:31:25.279Z,2.28
2022-07-26T01:33:52.603Z,2.38
2022-07-26T01:36:19.815Z,2.20
2022-07-26T01:38:46.808Z,2.33
2022-07-26T01:41:14.057Z,2.20
2022-07-26T01:43:41.153Z,2.10
2022-07-26T01:46:09.073Z,2.17
2022-07-26T01:48:37.058Z,2.30
2022-07-26T01:51:04.340Z,2.20
2022-07-26T01:53:31.453Z,2.20
2022-07-26T01:55:58.779Z,1.98
2022-07-26T01:58:25.673Z,2.17
2022-07-26T02:00:52.612Z,2.05
2022-07-26T02:03:19.538Z,2.00
2022-07-26T02:05:46.557Z,2.05
2022-07-26T02:08:13.624Z,1.80
2022-07-26T02:10:40.612Z,2.30
2022-07-26T02:13:07.830Z,2.40
2022-07-26T02:15:35.325Z,2.13
2022-07-26T02:18:02.293Z,2.25
2022-07-26T02:20:29.250Z,2.20
2022-07-26T02:22:56.138Z,2.28
2022-07-26T02:25:23.078Z,2.42
2022-07-26T02:27:50.174Z,2.60
2022-07-26T02:30:17.158Z,2.60
2022-07-26T02:32:44.148Z,2.55
2022-07-26T02:35:11.796Z,2.40
2022-07-26T02:37:43.920Z,2.22
2022-07-26T02:40:16.923Z,2.28
2022-07-26T02:42:45.983Z,2.45
2022-07-26T02:45:12.973Z,3.35
2022-07-26T02:47:50.743Z,2.88
2022-07-26T02:50:18.729Z,2.38
2022-07-26T02:52:46.193Z,2.38
2022-07-26T02:55:13.275Z,2.38
2022-07-26T02:57:45.488Z,2.38
2022-07-26T03:00:16.194Z,2.65
2022-07-26T03:02:43.441Z,2.60
2022-07-26T03:05:11.148Z,2.38
2022-07-26T03:07:38.386Z,2.55
2022-07-26T03:10:05.997Z,2.28
2022-07-26T03:12:33.023Z,2.60
2022-07-26T03:15:00.419Z,2.40
2022-07-26T03:17:27.389Z,2.40
2022-07-26T03:19:54.436Z,2.50
2022-07-26T03:22:21.356Z,2.30
2022-07-26T03:24:48.412Z,2.20
2022-07-26T03:27:15.480Z,2.80
2022-07-26T03:29:42.418Z,2.63
2022-07-26T03:32:09.325Z,2.70
2022-07-26T03:34:36.349Z,3.70
2022-07-26T03:37:03.748Z,2.88
2022-07-26T03:39:30.845Z,3.53
2022-07-26T03:41:57.901Z,2.80
2022-07-26T03:44:24.844Z,3.20
2022-07-26T03:46:51.956Z,2.83
2022-07-26T03:49:19.108Z,3.10
2022-07-26T03:51:46.124Z,3.22
2022-07-26T03:54:13.121Z,3.35
2022-07-26T03:56:40.648Z,2.72
2022-07-26T03:59:09.565Z,2.88
2022-07-26T04:01:38.127Z,2.90
2022-07-26T04:04:05.288Z,2.65
2022-07-26T04:09:05.568Z,2.50
2022-07-26T04:11:33.726Z,2.58
2022-07-26T04:14:01.611Z,2.92
2022-07-26T04:16:28.651Z,2.80
2022-07-26T04:18:55.741Z,2.85
2022-07-26T04:21:23.095Z,3.03
2022-07-26T04:23:51.535Z,3.10
2022-07-26T04:26:20.244Z,3.10
2022-07-26T04:28:47.518Z,3.15
2022-07-26T04:31:14.726Z,2.90
2022-07-26T04:33:42.161Z,3.20
2022-07-26T04:36:09.449Z,3.08
2022-07-26T04:38:36.447Z,3.47
2022-07-26T04:41:03.689Z,3.10
2022-07-26T04:43:30.713Z,3.28
2022-07-26T04:45:57.944Z,2.90
2022-07-26T04:48:25.383Z,3.15
2022-07-26T04:50:52.710Z,2.88
2022-07-26T04:53:19.894Z,2.78
2022-07-26T04:55:46.826Z,3.75
2022-07-26T04:58:13.841Z,3.65
2022-07-26T05:01:08.604Z,3.17
2022-07-26T05:03:27.892Z,2.83
2022-07-26T05:05:54.827Z,2.92
2022-07-26T05:08:21.918Z,2.70
2022-07-26T05:10:54.911Z,2.53
2022-07-26T05:13:23.182Z,2.60
2022-07-26T05:15:58.305Z,2.90
2022-07-26T05:18:25.962Z,2.78
2022-07-26T05:20:53.148Z,2.90
2022-07-26T05:23:20.051Z,3.17
2022-07-26T05:25:47.162Z,3.72
2022-07-26T05:28:14.492Z,2.80
2022-07-26T05:30:41.569Z,3.05
2022-07-26T05:33:08.600Z,2.80
2022-07-26T05:35:35.490Z,2.75
2022-07-26T05:38:02.560Z,2.72
2022-07-26T05:40:29.607Z,3.20
2022-07-26T05:42:56.682Z,2.88
2022-07-26T05:45:23.630Z,2.90
2022-07-26T05:47:51.320Z,3.40
2022-07-26T05:50:19.335Z,3.53
2022-07-26T05:52:46.473Z,2.83
2022-07-26T05:55:13.696Z,4.55
2022-07-26T05:57:40.905Z,3.10
2022-07-26T06:00:09.369Z,2.83
2022-07-26T06:02:39.409Z,3.75
2022-07-26T06:05:07.012Z,3.85
2022-07-26T06:07:34.351Z,3.90
2022-07-26T06:10:01.390Z,3.88
2022-07-26T06:12:28.361Z,4.18
2022-07-26T06:14:55.309Z,3.80
2022-07-26T06:17:22.355Z,4.03
2022-07-26T06:19:49.398Z,4.20
2022-07-26T06:22:16.501Z,4.20
2022-07-26T06:24:43.456Z,3.90
2022-07-26T06:27:10.391Z,3.95
2022-07-26T06:29:37.384Z,4.30
2022-07-26T06:32:04.451Z,3.95
2022-07-26T06:34:31.379Z,4.00
2022-07-26T06:36:59.072Z,4.72
2022-07-26T06:39:26.410Z,4.05
2022-07-26T06:41:53.879Z,4.13
2022-07-26T06:44:22.810Z,4.20
2022-07-26T06:46:49.926Z,4.70
2022-07-26T06:49:20.760Z,4.30
2022-07-26T06:51:49.360Z,4.55
2022-07-26T06:54:16.378Z,4.75
2022-07-26T06:56:43.368Z,4.40
2022-07-26T06:59:10.336Z,4.90
2022-07-26T07:01:58.364Z,4.85
2022-07-26T07:04:24.311Z,4.07
2022-07-26T07:06:51.370Z,4.53
2022-07-26T07:09:19.796Z,4.60
2022-07-26T07:11:48.425Z,4.20
2022-07-26T07:14:18.896Z,4.28
2022-07-26T07:16:45.959Z,4.50
2022-07-26T07:19:13.147Z,4.22
2022-07-26T07:21:40.065Z,4.25
2022-07-26T07:24:08.220Z,4.28
2022-07-26T07:26:35.344Z,3.83
2022-07-26T07:29:04.055Z,4.20
2022-07-26T07:31:48.968Z,4.03
2022-07-26T07:34:19.455Z,3.95
2022-07-26T07:36:47.143Z,4.10
2022-07-26T07:39:17.281Z,4.10
2022-07-26T07:41:45.854Z,3.78
2022-07-26T07:44:13.461Z,4.72
2022-07-26T07:46:41.159Z,5.40
2022-07-26T07:49:08.431Z,4.32
2022-07-26T07:51:36.227Z,4.20
2022-07-26T07:54:05.927Z,4.50
2022-07-26T07:56:33.626Z,4.65
2022-07-26T07:59:01.123Z,4.05
2022-07-26T08:01:39.791Z,4.45
2022-07-26T08:04:09.116Z,4.05
2022-07-26T08:06:36.968Z,4.45
2022-07-26T08:09:05.389Z,4.50
2022-07-26T08:11:33.830Z,4.30
2022-07-26T08:14:01.720Z,4.22
2022-07-26T08:16:28.835Z,4.82
2022-07-26T08:18:57.869Z,4.32
2022-07-26T08:21:28.076Z,4.30
2022-07-26T08:23:55.381Z,4.38
2022-07-26T08:26:22.302Z,4.53
2022-07-26T08:28:58.290Z,4.65
2022-07-26T08:31:26.582Z,4.55
2022-07-26T08:33:53.500Z,4.20
2022-07-26T08:36:20.454Z,4.32
2022-07-26T08:38:48.505Z,4.35
2022-07-26T08:41:17.300Z,4.80
2022-07-26T08:43:52.102Z,4.32
2022-07-26T08:46:27.107Z,5.95
2022-07-26T08:48:58.084Z,4.10
2022-07-26T08:51:26.500Z,4.00
2022-07-26T08:54:04.906Z,4.93
2022-07-26T08:56:37.807Z,4.38
2022-07-26T08:59:18.627Z,4.18
2022-07-26T09:01:59.594Z,4.50
2022-07-26T09:04:32.952Z,4.50
2022-07-26T09:07:11.944Z,4.95
2022-07-26T09:09:56.288Z,4.20
2022-07-26T09:12:24.932Z,4.40
2022-07-26T09:14:52.489Z,4.40
2022-07-26T09:17:21.640Z,4.70
2022-07-26T09:20:07.430Z,5.93
2022-07-26T09:22:34.349Z,4.78
2022-07-26T09:25:01.775Z,4.95
2022-07-26T09:27:36.011Z,4.80
2022-07-26T09:30:08.959Z,4.10
2022-07-26T09:32:35.974Z,4.57
2022-07-26T09:35:45.396Z,5.10
2022-07-26T09:38:12.773Z,4.50
2022-07-26T09:40:40.278Z,4.30
2022-07-26T09:43:09.952Z,6.40
2022-07-26T09:45:37.193Z,6.37
2022-07-26T09:48:04.847Z,5.25
2022-07-26T09:50:33.441Z,4.47
2022-07-26T09:53:13.195Z,4.72
2022-07-26T09:55:46.539Z,4.82
2022-07-26T09:58:15.487Z,4.45
2022-07-26T10:00:43.677Z,4.50
2022-07-26T10:03:10.863Z,4.93
2022-07-26T10:05:38.017Z,5.15
2022-07-26T10:08:06.375Z,5.90
2022-07-26T10:11:08.796Z,4.93
2022-07-26T10:13:35.747Z,5.00
2022-07-26T10:16:02.903Z,5.20
2022-07-26T10:18:39.323Z,4.75
2022-07-26T10:21:16.638Z,5.07
2022-07-26T10:23:45.464Z,5.05
2022-07-26T10:26:31.101Z,4.63
2022-07-26T10:29:18.307Z,5.07
2022-07-26T10:31:46.122Z,5.53
2022-07-26T10:34:40.130Z,5.45
2022-07-26T10:37:10.378Z,5.20
2022-07-26T10:39:38.956Z,6.18
2022-07-26T10:42:11.157Z,5.30
2022-07-26T10:44:40.208Z,4.97
2022-07-26T10:47:07.273Z,5.30
2022-07-26T10:49:38.126Z,5.47
2022-07-26T10:54:59.551Z,4.80
2022-07-26T10:57:31.333Z,4.82
2022-07-26T10:59:59.631Z,4.75
2022-07-26T11:02:32.784Z,5.90
2022-07-26T11:05:10.223Z,4.93
2022-07-26T11:07:50.515Z,4.85
2022-07-26T11:10:26.524Z,4.80
2022-07-26T11:13:00.276Z,4.78
2022-07-26T11:15:27.385Z,4.68
2022-07-26T11:18:10.089Z,5.00
2022-07-26T11:20:37.659Z,5.00
2022-07-26T11:23:18.977Z,5.25
2022-07-26T11:26:10.097Z,4.45
2022-07-26T11:29:06.238Z,4.55
2022-07-26T11:31:55.570Z,4.60
2022-07-26T11:34:29.575Z,4.28
2022-07-26T11:36:58.914Z,4.50
2022-07-26T11:39:31.173Z,4.80
2022-07-26T11:42:19.397Z,4.47
2022-07-26T11:44:47.881Z,4.90
2022-07-26T11:47:19.257Z,4.57
2022-07-26T11:50:00.287Z,4.32
2022-07-26T11:52:33.882Z,5.57
2022-07-26T11:55:00.941Z,5.43
2022-07-26T11:57:29.901Z,5.10
2022-07-26T11:59:58.099Z,5.40
2022-07-26T12:02:25.936Z,5.35
2022-07-26T12:05:17.068Z,5.65
2022-07-26T12:07:55.195Z,4.88
2022-07-26T12:10:22.463Z,5.22
2022-07-26T12:12:49.643Z,5.20
2022-07-26T12:15:16.722Z,4.60
2022-07-26T12:17:59.920Z,4.80
2022-07-26T12:20:26.861Z,4.63
2022-07-26T12:22:54.806Z,4.60
2022-07-26T12:25:26.585Z,4.70
2022-07-26T12:27:53.753Z,4.57
2022-07-26T12:30:21.402Z,5.07
2022-07-26T12:32:49.720Z,5.00
2022-07-26T12:35:18.312Z,5.07
2022-07-26T12:37:48.359Z,5.28
2022-07-26T12:40:16.683Z,4.90
2022-07-26T12:42:44.900Z,5.70
2022-07-26T12:45:13.364Z,5.20
2022-07-26T12:47:43.888Z,5.40
2022-07-26T12:50:12.237Z,5.25
2022-07-26T12:52:39.989Z,5.30
2022-07-26T12:55:09.187Z,5.03
2022-07-26T12:57:36.831Z,4.93
2022-07-26T13:00:06.735Z,5.28
2022-07-26T13:02:33.925Z,5.95
2022-07-26T13:05:01.352Z,6.75
2022-07-26T13:07:28.473Z,6.93
2022-07-26T13:10:30.048Z,7.10
2022-07-26T13:12:42.510Z,7.57
2022-07-26T13:15:09.970Z,7.25
2022-07-26T13:17:36.972Z,7.32
2022-07-26T13:20:04.709Z,7.53
2022-07-26T13:22:31.718Z,7.20
2022-07-26T13:24:59.419Z,7.13
2022-07-26T13:27:35.986Z,7.75
2022-07-26T13:30:04.272Z,7.28
2022-07-26T13:32:31.312Z,7.20
2022-07-26T13:34:58.237Z,7.00
2022-07-26T13:37:25.191Z,7.15
2022-07-26T13:39:52.256Z,7.15
2022-07-26T13:42:19.426Z,7.30
2022-07-26T13:44:46.315Z,7.50
2022-07-26T13:47:13.295Z,6.82
2022-07-26T13:49:40.459Z,7.70
2022-07-26T13:52:10.854Z,7.55
2022-07-26T13:54:42.215Z,7.93
2022-07-26T13:57:09.270Z,9.13
2022-07-26T13:59:36.271Z,9.38
2022-07-26T14:02:03.510Z,9.88
2022-07-26T14:04:33.381Z,12.07
2022-07-26T14:07:00.719Z,12.68
2022-07-26T14:09:27.650Z,11.65
2022-07-26T14:11:54.745Z,12.00
2022-07-26T14:14:21.693Z,12.02
2022-07-26T14:16:49.636Z,12.60
2022-07-26T14:19:17.150Z,11.90
2022-07-26T14:21:58.590Z,12.82
2022-07-26T14:24:27.839Z,12.65
2022-07-26T14:26:58.785Z,11.88
2022-07-26T14:29:27.401Z,11.38
2022-07-26T14:31:54.543Z,11.60
2022-07-26T14:34:21.567Z,11.80
2022-07-26T14:36:48.955Z,12.02
2022-07-26T14:39:15.863Z,12.88
2022-07-26T14:41:42.787Z,12.32
2022-07-26T14:44:09.927Z,12.02
2022-07-26T14:46:37.001Z,11.18
2022-07-26T14:49:04.088Z,11.40
2022-07-26T14:51:31.333Z,10.75
2022-07-26T14:53:58.413Z,10.85
2022-07-26T14:56:25.408Z,10.65
2022-07-26T14:58:52.387Z,9.82
2022-07-26T15:01:19.456Z,9.63
2022-07-26T15:03:46.610Z,10.05
2022-07-26T15:06:13.772Z,10.38
2022-07-26T15:08:40.683Z,10.30
2022-07-26T15:11:07.823Z,10.10
2022-07-26T15:13:35.546Z,10.98
2022-07-26T15:16:02.929Z,9.85
2022-07-26T15:18:30.925Z,9.82
2022-07-26T15:20:58.032Z,10.10
2022-07-26T15:23:25.591Z,10.57
2022-07-26T15:25:52.834Z,10.40
2022-07-26T15:28:19.920Z,9.77
2022-07-26T15:30:46.896Z,10.57
2022-07-26T15:33:13.937Z,10.73
2022-07-26T15:35:41.371Z,10.95
2022-07-26T15:38:08.392Z,11.20
2022-07-26T15:40:35.286Z,11.82
2022-07-26T15:43:02.248Z,12.73
2022-07-26T15:45:30.118Z,12.35
2022-07-26T15:48:13.436Z,12.50
2022-07-26T15:50:44.189Z,14.65
2022-07-26T15:53:14.842Z,14.30
2022-07-26T15:55:41.778Z,14.48
2022-07-26T15:58:08.712Z,15.10
2022-07-26T16:00:35.818Z,14.77
2022-07-26T16:03:02.856Z,15.85
2022-07-26T16:05:30.261Z,15.93
2022-07-26T16:07:57.241Z,15.63
2022-07-26T16:10:24.227Z,15.25
2022-07-26T16:12:51.192Z,15.82
2022-07-26T16:15:18.499Z,14.93
2022-07-26T16:17:45.441Z,15.63
2022-07-26T16:20:12.448Z,16.50
2022-07-26T16:22:39.315Z,15.68
2022-07-26T16:25:07.157Z,15.65
2022-07-26T16:27:34.067Z,16.17
2022-07-26T16:30:01.012Z,16.50
2022-07-26T16:32:28.013Z,15.50
2022-07-26T16:34:54.946Z,16.08
2022-07-26T16:37:21.999Z,15.48
2022-07-26T16:39:48.925Z,16.35
2022-07-26T16:42:16.098Z,16.73
2022-07-26T16:44:42.978Z,16.55
2022-07-26T16:47:10.072Z,15.82
2022-07-26T16:49:37.171Z,16.45
2022-07-26T16:52:04.314Z,16.67
2022-07-26T16:54:31.702Z,16.92
2022-07-26T16:56:59.274Z,17.02
2022-07-26T16:59:27.060Z,16.90
2022-07-26T17:01:54.484Z,16.90
2022-07-26T17:04:21.524Z,17.05
2022-07-26T17:07:14.550Z,17.17
2022-07-26T17:09:36.360Z,17.40
2022-07-26T17:12:06.628Z,17.13
2022-07-26T17:14:34.047Z,17.10
2022-07-26T17:17:00.939Z,16.80
2022-07-26T17:19:27.887Z,16.42
2022-07-26T17:21:54.843Z,16.95
2022-07-26T17:24:21.868Z,15.60
2022-07-26T17:26:48.987Z,15.85
2022-07-26T17:29:16.013Z,14.82
2022-07-26T17:31:43.046Z,14.85
2022-07-26T17:34:10.151Z,14.70
2022-07-26T17:36:37.282Z,15.52
2022-07-26T17:39:04.579Z,14.73
2022-07-26T17:41:33.597Z,15.00
2022-07-26T17:44:01.912Z,14.65
2022-07-26T17:46:29.324Z,14.13
2022-07-26T17:48:56.375Z,14.85
2022-07-26T17:51:23.411Z,14.13
2022-07-26T17:53:53.249Z,13.50
2022-07-26T17:56:20.412Z,13.73
2022-07-26T17:58:47.336Z,13.75
2022-07-26T18:01:14.358Z,13.43
2022-07-26T18:03:41.419Z,13.68
2022-07-26T18:06:08.424Z,12.52
2022-07-26T18:08:35.360Z,12.02
2022-07-26T18:11:02.371Z,12.50
2022-07-26T18:13:29.400Z,11.23
2022-07-26T18:15:57.065Z,10.93
2022-07-26T18:18:24.230Z,10.90
2022-07-26T18:20:51.285Z,10.48
2022-07-26T18:23:18.794Z,10.40
2022-07-26T18:25:45.845Z,10.25
2022-07-26T18:28:12.802Z,9.77
2022-07-26T18:30:39.962Z,9.07
2022-07-26T18:33:07.242Z,9.15
2022-07-26T18:35:34.266Z,8.55
2022-07-26T18:38:01.365Z,8.38
2022-07-26T18:40:28.289Z,7.90
2022-07-26T18:42:55.237Z,7.35
2022-07-26T18:45:22.372Z,7.78
2022-07-26T18:47:49.416Z,7.22
2022-07-26T18:50:16.993Z,7.68
2022-07-26T18:52:44.593Z,6.53
2022-07-26T18:55:13.174Z,6.72
2022-07-26T18:57:41.632Z,6.75
2022-07-26T19:00:14.182Z,6.35
2022-07-26T19:02:42.319Z,6.20
2022-07-26T19:05:09.799Z,6.00
2022-07-26T19:07:37.156Z,5.88
2022-07-26T19:10:06.539Z,5.10
2022-07-26T19:12:33.603Z,4.65
2022-07-26T19:15:00.712Z,4.60
2022-07-26T19:17:30.327Z,4.47
2022-07-26T19:20:00.235Z,4.43
2022-07-26T19:22:27.346Z,4.38
2022-07-26T19:24:54.280Z,4.63
2022-07-26T19:27:21.390Z,4.38
2022-07-26T19:29:48.587Z,4.28
2022-07-26T19:32:15.713Z,4.30
2022-07-26T19:34:42.846Z,4.32
2022-07-26T19:37:09.865Z,4.18
2022-07-26T19:39:36.872Z,3.90
2022-07-26T19:42:04.026Z,3.72
2022-07-26T19:44:30.927Z,3.85
2022-07-26T19:46:58.161Z,3.70
2022-07-26T19:49:25.391Z,3.60
2022-07-26T19:51:52.414Z,3.78
2022-07-26T19:54:19.399Z,3.70
2022-07-26T19:56:46.447Z,3.38
2022-07-26T19:59:16.872Z,3.05
2022-07-26T20:01:46.697Z,3.35
2022-07-26T20:04:13.792Z,3.40
2022-07-26T20:06:41.144Z,2.88
2022-07-26T20:09:08.408Z,2.92
2022-07-26T20:11:35.974Z,3.00
2022-07-26T20:14:03.998Z,3.40
2022-07-26T20:16:31.160Z,2.80
2022-07-26T20:18:58.771Z,3.13
2022-07-26T20:21:25.743Z,2.90
2022-07-26T20:23:52.637Z,2.90
2022-07-26T20:26:19.546Z,2.70
2022-07-26T20:28:46.578Z,3.00
2022-07-26T20:31:16.057Z,2.90
2022-07-26T20:33:43.013Z,2.70
2022-07-26T20:36:09.983Z,2.80
2022-07-26T20:38:36.934Z,2.70
2022-07-26T20:41:03.888Z,2.78
2022-07-26T20:43:32.832Z,2.97
2022-07-26T20:46:01.903Z,2.50
2022-07-26T20:48:28.914Z,2.70
2022-07-26T20:50:55.846Z,2.90
2022-07-26T20:53:22.843Z,3.03
2022-07-26T20:55:49.730Z,2.85
2022-07-26T20:58:16.664Z,2.70
2022-07-26T21:00:43.876Z,2.50
2022-07-26T21:03:10.827Z,2.75
2022-07-26T21:05:37.792Z,2.70
2022-07-26T21:08:05.227Z,2.53
2022-07-26T21:10:32.628Z,2.60
2022-07-26T21:12:59.511Z,2.58
2022-07-26T21:15:26.763Z,2.60
2022-07-26T21:17:53.678Z,2.50
2022-07-26T21:20:20.998Z,2.45
2022-07-26T21:22:48.168Z,2.65
2022-07-26T21:25:15.221Z,2.60
2022-07-26T21:27:42.128Z,2.65
2022-07-26T21:30:09.742Z,2.70
2022-07-26T21:32:36.647Z,2.33
2022-07-26T21:35:04.176Z,2.60
2022-07-26T21:37:31.136Z,2.40
2022-07-26T21:40:00.855Z,2.25
2022-07-26T21:42:28.284Z,2.37
2022-07-26T21:44:55.255Z,2.30
2022-07-26T21:47:22.186Z,2.63
2022-07-26T21:49:49.134Z,2.10
2022-07-26T21:52:16.129Z,2.22
2022-07-26T21:54:43.077Z,2.30
2022-07-26T21:57:10.073Z,2.65
2022-07-26T21:59:37.065Z,2.47
2022-07-26T22:02:04.142Z,2.47
2022-07-26T22:04:31.228Z,2.20
2022-07-26T22:06:58.235Z,2.50
2022-07-26T22:09:25.349Z,2.22
2022-07-26T22:11:53.350Z,2.50
2022-07-26T22:14:21.780Z,2.28
2022-07-26T22:16:49.143Z,2.60
2022-07-26T22:19:16.290Z,2.58
2022-07-26T22:21:43.282Z,2.35
2022-07-26T22:24:10.342Z,2.50
2022-07-26T22:26:38.156Z,2.60
2022-07-26T22:29:05.202Z,2.80
2022-07-26T22:31:32.366Z,2.38
2022-07-26T22:33:59.362Z,2.30
2022-07-26T22:36:26.315Z,2.33
2022-07-26T22:38:53.461Z,2.60
2022-07-26T22:41:20.407Z,2.35
2022-07-26T22:43:47.405Z,2.30
2022-07-26T22:46:14.539Z,2.60
2022-07-26T22:48:44.544Z,2.38
2022-07-26T22:51:14.919Z,2.60
2022-07-26T22:53:41.866Z,2.50
2022-07-26T22:56:08.940Z,2.50
2022-07-26T22:58:35.990Z,2.50
2022-07-26T23:01:03.142Z,2.53
2022-07-26T23:03:30.789Z,2.78
2022-07-26T23:06:00.193Z,2.30
2022-07-26T23:08:46.585Z,2.05
2022-07-26T23:11:14.520Z,2.42
2022-07-26T23:13:41.579Z,2.30
2022-07-26T23:16:08.619Z,2.40
2022-07-26T23:18:36.468Z,2.47
2022-07-26T23:21:04.278Z,2.38
2022-07-26T23:23:31.712Z,2.38
2022-07-26T23:25:59.610Z,2.35
2022-07-26T23:28:36.758Z,2.13
2022-07-26T23:31:10.344Z,2.40
2022-07-26T23:33:51.441Z,2.25
2022-07-26T23:36:28.595Z,2.13
2022-07-26T23:38:57.347Z,2.30
2022-07-26T23:41:25.115Z,2.30
2022-07-26T23:43:52.790Z,2.30
2022-07-26T23:46:20.167Z,2.25
2022-07-26T23:48:47.706Z,2.50
2022-07-26T23:51:14.986Z,2.55
2022-07-26T23:53:42.297Z,2.25
2022-07-26T23:56:09.287Z,2.72
2022-07-26T23:58:36.388Z,2.22
